sensor_id;sensor_type;location;lat;lon;timestamp;P1;durP1;ratioP1;P2;durP2;ratioP2
47021;SDS011;32779;52.264;6.154;2023-06-22T00:01:09;6.72;;;5.05;;
47021;SDS011;32779;52.264;6.154;2023-06-22T00:03:35;6.50;;;4.78;;
47021;SDS011;32779;52.264;6.154;2023-06-22T00:06:00;7.28;;;5.13;;
47021;SDS011;32779;52.264;6.154;2023-06-22T00:08:26;6.35;;;4.60;;
47021;SDS011;32779;52.264;6.154;2023-06-22T00:10:51;11.57;;;4.60;;
47021;SDS011;32779;52.264;6.154;2023-06-22T00:13:17;8.23;;;4.82;;
47021;SDS011;32779;52.264;6.154;2023-06-22T00:15:43;7.53;;;5.70;;
47021;SDS011;32779;52.264;6.154;2023-06-22T00:18:09;7.03;;;5.10;;
47021;SDS011;32779;52.264;6.154;2023-06-22T00:20:35;11.52;;;5.40;;
47021;SDS011;32779;52.264;6.154;2023-06-22T00:23:02;7.00;;;5.07;;
47021;SDS011;32779;52.264;6.154;2023-06-22T00:25:33;7.28;;;5.28;;
47021;SDS011;32779;52.264;6.154;2023-06-22T00:28:03;7.93;;;5.43;;
47021;SDS011;32779;52.264;6.154;2023-06-22T00:30:29;6.93;;;5.35;;
47021;SDS011;32779;52.264;6.154;2023-06-22T00:32:56;10.00;;;5.53;;
47021;SDS011;32779;52.264;6.154;2023-06-22T00:37:47;7.03;;;5.90;;
47021;SDS011;32779;52.264;6.154;2023-06-22T00:40:13;9.57;;;5.90;;
47021;SDS011;32779;52.264;6.154;2023-06-22T00:42:39;8.98;;;5.97;;
47021;SDS011;32779;52.264;6.154;2023-06-22T00:45:06;7.97;;;5.97;;
47021;SDS011;32779;52.264;6.154;2023-06-22T00:47:34;8.85;;;5.80;;
47021;SDS011;32779;52.264;6.154;2023-06-22T00:50:00;11.77;;;6.00;;
47021;SDS011;32779;52.264;6.154;2023-06-22T00:52:28;9.63;;;5.90;;
47021;SDS011;32779;52.264;6.154;2023-06-22T00:54:56;9.77;;;6.15;;
47021;SDS011;32779;52.264;6.154;2023-06-22T00:57:23;9.70;;;6.88;;
47021;SDS011;32779;52.264;6.154;2023-06-22T00:59:52;9.68;;;6.65;;
47021;SDS011;32779;52.264;6.154;2023-06-22T01:02:19;11.85;;;7.35;;
47021;SDS011;32779;52.264;6.154;2023-06-22T01:07:11;11.23;;;7.75;;
47021;SDS011;32779;52.264;6.154;2023-06-22T01:10:06;11.13;;;8.40;;
47021;SDS011;32779;52.264;6.154;2023-06-22T01:12:42;10.57;;;7.80;;
47021;SDS011;32779;52.264;6.154;2023-06-22T01:15:18;13.03;;;7.63;;
47021;SDS011;32779;52.264;6.154;2023-06-22T01:17:50;9.85;;;7.03;;
47021;SDS011;32779;52.264;6.154;2023-06-22T01:20:18;15.65;;;8.43;;
47021;SDS011;32779;52.264;6.154;2023-06-22T01:22:54;12.25;;;8.27;;
47021;SDS011;32779;52.264;6.154;2023-06-22T01:25:36;14.48;;;9.38;;
47021;SDS011;32779;52.264;6.154;2023-06-22T01:30:59;11.52;;;8.75;;
47021;SDS011;32779;52.264;6.154;2023-06-22T01:33:31;12.93;;;7.65;;
47021;SDS011;32779;52.264;6.154;2023-06-22T01:35:59;10.50;;;8.40;;
47021;SDS011;32779;52.264;6.154;2023-06-22T01:38:26;10.00;;;8.15;;
47021;SDS011;32779;52.264;6.154;2023-06-22T01:40:54;11.60;;;7.95;;
47021;SDS011;32779;52.264;6.154;2023-06-22T01:43:22;14.52;;;8.82;;
47021;SDS011;32779;52.264;6.154;2023-06-22T01:45:51;12.25;;;9.07;;
47021;SDS011;32779;52.264;6.154;2023-06-22T01:48:17;11.32;;;9.30;;
47021;SDS011;32779;52.264;6.154;2023-06-22T01:50:44;12.35;;;10.02;;
47021;SDS011;32779;52.264;6.154;2023-06-22T01:53:10;11.93;;;9.90;;
47021;SDS011;32779;52.264;6.154;2023-06-22T01:58:01;13.07;;;9.50;;
47021;SDS011;32779;52.264;6.154;2023-06-22T02:00:28;13.15;;;9.95;;
47021;SDS011;32779;52.264;6.154;2023-06-22T02:02:58;14.95;;;11.25;;
47021;SDS011;32779;52.264;6.154;2023-06-22T02:05:28;16.25;;;10.65;;
47021;SDS011;32779;52.264;6.154;2023-06-22T02:10:36;14.70;;;11.05;;
47021;SDS011;32779;52.264;6.154;2023-06-22T02:13:04;17.48;;;11.68;;
47021;SDS011;32779;52.264;6.154;2023-06-22T02:15:33;15.55;;;11.13;;
47021;SDS011;32779;52.264;6.154;2023-06-22T02:20:25;16.23;;;12.68;;
47021;SDS011;32779;52.264;6.154;2023-06-22T02:25:25;16.13;;;12.80;;
47021;SDS011;32779;52.264;6.154;2023-06-22T02:30:16;17.52;;;13.75;;
47021;SDS011;32779;52.264;6.154;2023-06-22T02:35:08;19.27;;;15.18;;
47021;SDS011;32779;52.264;6.154;2023-06-22T02:37:35;20.52;;;15.80;;
47021;SDS011;32779;52.264;6.154;2023-06-22T02:40:06;22.95;;;17.80;;
47021;SDS011;32779;52.264;6.154;2023-06-22T02:42:34;21.73;;;16.27;;
47021;SDS011;32779;52.264;6.154;2023-06-22T02:45:00;19.60;;;15.77;;
47021;SDS011;32779;52.264;6.154;2023-06-22T02:47:28;25.30;;;17.38;;
47021;SDS011;32779;52.264;6.154;2023-06-22T02:52:19;20.20;;;16.88;;
47021;SDS011;32779;52.264;6.154;2023-06-22T02:57:13;20.60;;;15.90;;
47021;SDS011;32779;52.264;6.154;2023-06-22T03:02:06;25.17;;;16.80;;
47021;SDS011;32779;52.264;6.154;2023-06-22T03:04:33;24.40;;;17.98;;
47021;SDS011;32779;52.264;6.154;2023-06-22T03:06:59;21.58;;;17.58;;
47021;SDS011;32779;52.264;6.154;2023-06-22T03:09:26;21.45;;;16.98;;
47021;SDS011;32779;52.264;6.154;2023-06-22T03:11:55;23.88;;;20.15;;
47021;SDS011;32779;52.264;6.154;2023-06-22T03:16:47;29.70;;;22.25;;
47021;SDS011;32779;52.264;6.154;2023-06-22T03:21:39;32.20;;;24.40;;
47021;SDS011;32779;52.264;6.154;2023-06-22T03:24:05;32.63;;;26.00;;
47021;SDS011;32779;52.264;6.154;2023-06-22T03:26:31;33.55;;;25.85;;
47021;SDS011;32779;52.264;6.154;2023-06-22T03:31:23;35.70;;;26.50;;
47021;SDS011;32779;52.264;6.154;2023-06-22T03:36:15;34.45;;;26.08;;
47021;SDS011;32779;52.264;6.154;2023-06-22T03:38:44;31.90;;;25.13;;
47021;SDS011;32779;52.264;6.154;2023-06-22T03:41:10;37.65;;;27.58;;
47021;SDS011;32779;52.264;6.154;2023-06-22T03:46:01;36.90;;;27.85;;
47021;SDS011;32779;52.264;6.154;2023-06-22T03:48:27;41.38;;;30.45;;
47021;SDS011;32779;52.264;6.154;2023-06-22T03:53:30;37.33;;;28.08;;
47021;SDS011;32779;52.264;6.154;2023-06-22T03:58:22;35.50;;;28.88;;
47021;SDS011;32779;52.264;6.154;2023-06-22T04:03:14;39.05;;;30.05;;
47021;SDS011;32779;52.264;6.154;2023-06-22T04:05:40;38.05;;;29.40;;
47021;SDS011;32779;52.264;6.154;2023-06-22T04:08:06;39.13;;;31.08;;
47021;SDS011;32779;52.264;6.154;2023-06-22T04:12:58;45.03;;;33.25;;
47021;SDS011;32779;52.264;6.154;2023-06-22T04:15:24;38.72;;;30.85;;
47021;SDS011;32779;52.264;6.154;2023-06-22T04:20:15;43.47;;;32.65;;
47021;SDS011;32779;52.264;6.154;2023-06-22T04:25:06;42.00;;;33.85;;
47021;SDS011;32779;52.264;6.154;2023-06-22T04:27:32;46.55;;;33.42;;
47021;SDS011;32779;52.264;6.154;2023-06-22T04:30:04;45.95;;;34.47;;
47021;SDS011;32779;52.264;6.154;2023-06-22T04:32:36;47.67;;;34.90;;
47021;SDS011;32779;52.264;6.154;2023-06-22T04:35:02;48.78;;;33.97;;
47021;SDS011;32779;52.264;6.154;2023-06-22T04:37:31;45.60;;;35.10;;
47021;SDS011;32779;52.264;6.154;2023-06-22T04:39:58;50.47;;;36.65;;
47021;SDS011;32779;52.264;6.154;2023-06-22T04:42:29;45.83;;;36.03;;
47021;SDS011;32779;52.264;6.154;2023-06-22T04:44:58;49.60;;;37.83;;
47021;SDS011;32779;52.264;6.154;2023-06-22T04:49:49;49.15;;;36.53;;
47021;SDS011;32779;52.264;6.154;2023-06-22T04:52:14;49.65;;;36.85;;
47021;SDS011;32779;52.264;6.154;2023-06-22T04:54:42;50.85;;;38.65;;
47021;SDS011;32779;52.264;6.154;2023-06-22T04:57:20;52.13;;;37.10;;
47021;SDS011;32779;52.264;6.154;2023-06-22T04:59:49;52.00;;;38.38;;
47021;SDS011;32779;52.264;6.154;2023-06-22T05:04:40;50.70;;;38.10;;
47021;SDS011;32779;52.264;6.154;2023-06-22T05:07:09;44.70;;;35.28;;
47021;SDS011;32779;52.264;6.154;2023-06-22T05:12:01;47.47;;;37.13;;
47021;SDS011;32779;52.264;6.154;2023-06-22T05:14:28;49.40;;;36.75;;
47021;SDS011;32779;52.264;6.154;2023-06-22T05:16:56;44.25;;;34.78;;
47021;SDS011;32779;52.264;6.154;2023-06-22T05:19:31;48.15;;;35.38;;
47021;SDS011;32779;52.264;6.154;2023-06-22T05:21:58;41.40;;;33.80;;
47021;SDS011;32779;52.264;6.154;2023-06-22T05:26:49;43.88;;;32.47;;
47021;SDS011;32779;52.264;6.154;2023-06-22T05:29:15;42.63;;;32.17;;
47021;SDS011;32779;52.264;6.154;2023-06-22T05:34:06;39.50;;;30.85;;
47021;SDS011;32779;52.264;6.154;2023-06-22T05:38:57;40.05;;;31.10;;
47021;SDS011;32779;52.264;6.154;2023-06-22T05:41:23;35.83;;;29.83;;
47021;SDS011;32779;52.264;6.154;2023-06-22T05:43:49;36.97;;;29.75;;
47021;SDS011;32779;52.264;6.154;2023-06-22T05:46:14;35.67;;;29.65;;
47021;SDS011;32779;52.264;6.154;2023-06-22T05:48:42;36.53;;;28.17;;
47021;SDS011;32779;52.264;6.154;2023-06-22T05:51:08;32.88;;;27.00;;
47021;SDS011;32779;52.264;6.154;2023-06-22T05:53:33;34.55;;;26.45;;
47021;SDS011;32779;52.264;6.154;2023-06-22T05:55:59;32.78;;;26.58;;
47021;SDS011;32779;52.264;6.154;2023-06-22T05:58:25;36.45;;;25.70;;
47021;SDS011;32779;52.264;6.154;2023-06-22T06:00:50;29.02;;;24.48;;
47021;SDS011;32779;52.264;6.154;2023-06-22T06:03:16;26.67;;;22.67;;
47021;SDS011;32779;52.264;6.154;2023-06-22T06:05:42;26.70;;;22.73;;
47021;SDS011;32779;52.264;6.154;2023-06-22T06:08:09;31.40;;;23.63;;
47021;SDS011;32779;52.264;6.154;2023-06-22T06:10:36;27.27;;;22.08;;
47021;SDS011;32779;52.264;6.154;2023-06-22T06:13:02;24.92;;;19.55;;
47021;SDS011;32779;52.264;6.154;2023-06-22T06:15:29;25.70;;;20.67;;
47021;SDS011;32779;52.264;6.154;2023-06-22T06:17:55;25.65;;;20.23;;
47021;SDS011;32779;52.264;6.154;2023-06-22T06:20:22;23.75;;;19.75;;
47021;SDS011;32779;52.264;6.154;2023-06-22T06:22:48;22.30;;;18.70;;
47021;SDS011;32779;52.264;6.154;2023-06-22T06:25:15;23.23;;;18.17;;
47021;SDS011;32779;52.264;6.154;2023-06-22T06:27:44;21.17;;;17.38;;
47021;SDS011;32779;52.264;6.154;2023-06-22T06:30:14;25.58;;;17.05;;
47021;SDS011;32779;52.264;6.154;2023-06-22T06:32:41;20.25;;;16.00;;
47021;SDS011;32779;52.264;6.154;2023-06-22T06:35:08;19.55;;;15.30;;
47021;SDS011;32779;52.264;6.154;2023-06-22T06:37:38;17.67;;;13.95;;
47021;SDS011;32779;52.264;6.154;2023-06-22T06:40:08;19.73;;;14.45;;
47021;SDS011;32779;52.264;6.154;2023-06-22T06:42:53;19.33;;;13.93;;
47021;SDS011;32779;52.264;6.154;2023-06-22T06:45:23;16.02;;;12.52;;
47021;SDS011;32779;52.264;6.154;2023-06-22T06:47:50;15.32;;;12.73;;
47021;SDS011;32779;52.264;6.154;2023-06-22T06:50:17;18.73;;;12.63;;
47021;SDS011;32779;52.264;6.154;2023-06-22T06:52:43;14.02;;;12.38;;
47021;SDS011;32779;52.264;6.154;2023-06-22T06:55:09;15.38;;;10.75;;
47021;SDS011;32779;52.264;6.154;2023-06-22T06:57:38;15.45;;;10.60;;
47021;SDS011;32779;52.264;6.154;2023-06-22T07:00:08;12.95;;;9.90;;
47021;SDS011;32779;52.264;6.154;2023-06-22T07:02:42;12.32;;;9.63;;
47021;SDS011;32779;52.264;6.154;2023-06-22T07:05:09;12.05;;;8.95;;
47021;SDS011;32779;52.264;6.154;2023-06-22T07:07:38;12.38;;;8.93;;
47021;SDS011;32779;52.264;6.154;2023-06-22T07:10:04;10.07;;;8.32;;
47021;SDS011;32779;52.264;6.154;2023-06-22T07:12:30;12.70;;;8.98;;
47021;SDS011;32779;52.264;6.154;2023-06-22T07:15:29;10.63;;;7.53;;
47021;SDS011;32779;52.264;6.154;2023-06-22T07:17:48;14.45;;;7.78;;
47021;SDS011;32779;52.264;6.154;2023-06-22T07:20:14;11.60;;;7.28;;
47021;SDS011;32779;52.264;6.154;2023-06-22T07:22:43;10.02;;;7.25;;
47021;SDS011;32779;52.264;6.154;2023-06-22T07:25:12;9.88;;;7.25;;
47021;SDS011;32779;52.264;6.154;2023-06-22T07:27:46;10.45;;;7.63;;
47021;SDS011;32779;52.264;6.154;2023-06-22T07:30:25;11.75;;;7.25;;
47021;SDS011;32779;52.264;6.154;2023-06-22T07:32:54;7.70;;;6.45;;
47021;SDS011;32779;52.264;6.154;2023-06-22T07:35:19;10.50;;;6.63;;
47021;SDS011;32779;52.264;6.154;2023-06-22T07:37:45;8.07;;;6.32;;
47021;SDS011;32779;52.264;6.154;2023-06-22T07:40:11;6.63;;;5.88;;
47021;SDS011;32779;52.264;6.154;2023-06-22T07:42:37;7.65;;;6.30;;
47021;SDS011;32779;52.264;6.154;2023-06-22T07:45:03;11.32;;;6.90;;
47021;SDS011;32779;52.264;6.154;2023-06-22T07:47:30;7.68;;;6.30;;
47021;SDS011;32779;52.264;6.154;2023-06-22T07:50:00;8.68;;;6.50;;
47021;SDS011;32779;52.264;6.154;2023-06-22T07:52:26;7.13;;;5.82;;
47021;SDS011;32779;52.264;6.154;2023-06-22T07:54:53;7.65;;;5.80;;
47021;SDS011;32779;52.264;6.154;2023-06-22T07:57:19;10.50;;;6.00;;
47021;SDS011;32779;52.264;6.154;2023-06-22T07:59:45;9.05;;;6.63;;
47021;SDS011;32779;52.264;6.154;2023-06-22T08:02:11;7.00;;;6.05;;
47021;SDS011;32779;52.264;6.154;2023-06-22T08:04:37;6.43;;;5.60;;
47021;SDS011;32779;52.264;6.154;2023-06-22T08:07:02;10.20;;;5.80;;
47021;SDS011;32779;52.264;6.154;2023-06-22T08:09:29;6.45;;;5.03;;
47021;SDS011;32779;52.264;6.154;2023-06-22T08:12:01;7.20;;;5.50;;
47021;SDS011;32779;52.264;6.154;2023-06-22T08:14:29;8.65;;;5.20;;
47021;SDS011;32779;52.264;6.154;2023-06-22T08:16:55;9.68;;;6.22;;
47021;SDS011;32779;52.264;6.154;2023-06-22T08:19:21;7.32;;;4.85;;
47021;SDS011;32779;52.264;6.154;2023-06-22T08:21:46;7.65;;;5.32;;
47021;SDS011;32779;52.264;6.154;2023-06-22T08:24:12;7.32;;;5.30;;
47021;SDS011;32779;52.264;6.154;2023-06-22T08:26:38;8.45;;;5.57;;
47021;SDS011;32779;52.264;6.154;2023-06-22T08:29:03;6.40;;;5.75;;
47021;SDS011;32779;52.264;6.154;2023-06-22T08:31:30;10.45;;;5.60;;
47021;SDS011;32779;52.264;6.154;2023-06-22T08:33:55;9.52;;;5.65;;
47021;SDS011;32779;52.264;6.154;2023-06-22T08:36:21;10.48;;;6.05;;
47021;SDS011;32779;52.264;6.154;2023-06-22T08:38:47;8.75;;;5.20;;
47021;SDS011;32779;52.264;6.154;2023-06-22T08:41:16;6.88;;;5.50;;
47021;SDS011;32779;52.264;6.154;2023-06-22T08:43:42;7.50;;;5.70;;
47021;SDS011;32779;52.264;6.154;2023-06-22T08:46:09;6.30;;;5.32;;
47021;SDS011;32779;52.264;6.154;2023-06-22T08:48:35;7.93;;;5.53;;
47021;SDS011;32779;52.264;6.154;2023-06-22T08:51:01;11.18;;;5.50;;
47021;SDS011;32779;52.264;6.154;2023-06-22T08:53:28;10.85;;;5.63;;
47021;SDS011;32779;52.264;6.154;2023-06-22T08:55:53;8.98;;;5.63;;
47021;SDS011;32779;52.264;6.154;2023-06-22T08:58:19;6.63;;;4.95;;
47021;SDS011;32779;52.264;6.154;2023-06-22T09:00:46;8.30;;;6.03;;
47021;SDS011;32779;52.264;6.154;2023-06-22T09:03:12;6.63;;;5.00;;
47021;SDS011;32779;52.264;6.154;2023-06-22T09:05:38;6.57;;;4.38;;
47021;SDS011;32779;52.264;6.154;2023-06-22T09:08:04;6.47;;;4.80;;
47021;SDS011;32779;52.264;6.154;2023-06-22T09:10:30;7.90;;;5.78;;
47021;SDS011;32779;52.264;6.154;2023-06-22T09:12:56;8.23;;;6.22;;
47021;SDS011;32779;52.264;6.154;2023-06-22T09:15:22;7.20;;;5.75;;
47021;SDS011;32779;52.264;6.154;2023-06-22T09:17:48;7.60;;;5.50;;
47021;SDS011;32779;52.264;6.154;2023-06-22T09:20:14;6.90;;;5.90;;
47021;SDS011;32779;52.264;6.154;2023-06-22T09:22:40;11.07;;;5.30;;
47021;SDS011;32779;52.264;6.154;2023-06-22T09:25:06;6.70;;;5.50;;
47021;SDS011;32779;52.264;6.154;2023-06-22T09:27:32;7.38;;;5.90;;
47021;SDS011;32779;52.264;6.154;2023-06-22T09:29:58;7.53;;;5.20;;
47021;SDS011;32779;52.264;6.154;2023-06-22T09:32:24;7.60;;;6.00;;
47021;SDS011;32779;52.264;6.154;2023-06-22T09:34:50;9.40;;;5.78;;
47021;SDS011;32779;52.264;6.154;2023-06-22T09:37:16;9.40;;;5.97;;
47021;SDS011;32779;52.264;6.154;2023-06-22T09:39:42;9.98;;;5.90;;
47021;SDS011;32779;52.264;6.154;2023-06-22T09:42:07;7.25;;;5.15;;
47021;SDS011;32779;52.264;6.154;2023-06-22T09:44:33;8.35;;;4.85;;
47021;SDS011;32779;52.264;6.154;2023-06-22T09:46:59;10.77;;;6.53;;
47021;SDS011;32779;52.264;6.154;2023-06-22T09:49:25;8.55;;;6.53;;
47021;SDS011;32779;52.264;6.154;2023-06-22T09:51:51;10.13;;;6.40;;
47021;SDS011;32779;52.264;6.154;2023-06-22T09:54:17;9.90;;;6.45;;
47021;SDS011;32779;52.264;6.154;2023-06-22T09:56:43;7.18;;;6.00;;
47021;SDS011;32779;52.264;6.154;2023-06-22T09:59:08;8.77;;;6.28;;
47021;SDS011;32779;52.264;6.154;2023-06-22T10:01:37;9.80;;;6.65;;
47021;SDS011;32779;52.264;6.154;2023-06-22T10:04:03;7.95;;;6.45;;
47021;SDS011;32779;52.264;6.154;2023-06-22T10:06:28;8.05;;;5.97;;
47021;SDS011;32779;52.264;6.154;2023-06-22T10:08:54;7.95;;;6.03;;
47021;SDS011;32779;52.264;6.154;2023-06-22T10:11:19;9.80;;;6.22;;
47021;SDS011;32779;52.264;6.154;2023-06-22T10:13:45;7.82;;;5.93;;
47021;SDS011;32779;52.264;6.154;2023-06-22T10:16:11;8.52;;;6.30;;
47021;SDS011;32779;52.264;6.154;2023-06-22T10:18:39;9.43;;;6.20;;
47021;SDS011;32779;52.264;6.154;2023-06-22T10:21:04;8.27;;;6.18;;
47021;SDS011;32779;52.264;6.154;2023-06-22T10:23:30;9.45;;;6.18;;
47021;SDS011;32779;52.264;6.154;2023-06-22T10:25:56;8.07;;;5.90;;
47021;SDS011;32779;52.264;6.154;2023-06-22T10:28:23;9.15;;;7.07;;
47021;SDS011;32779;52.264;6.154;2023-06-22T10:30:48;7.72;;;5.82;;
47021;SDS011;32779;52.264;6.154;2023-06-22T10:33:14;8.02;;;5.40;;
47021;SDS011;32779;52.264;6.154;2023-06-22T10:35:39;8.65;;;6.55;;
47021;SDS011;32779;52.264;6.154;2023-06-22T10:38:05;7.82;;;5.88;;
47021;SDS011;32779;52.264;6.154;2023-06-22T10:40:31;7.47;;;6.00;;
47021;SDS011;32779;52.264;6.154;2023-06-22T10:42:57;9.50;;;6.50;;
47021;SDS011;32779;52.264;6.154;2023-06-22T10:45:23;10.45;;;6.13;;
47021;SDS011;32779;52.264;6.154;2023-06-22T10:47:48;8.45;;;6.25;;
47021;SDS011;32779;52.264;6.154;2023-06-22T10:50:14;6.65;;;5.82;;
47021;SDS011;32779;52.264;6.154;2023-06-22T10:52:40;7.68;;;5.60;;
47021;SDS011;32779;52.264;6.154;2023-06-22T10:55:08;8.23;;;6.13;;
47021;SDS011;32779;52.264;6.154;2023-06-22T10:57:34;7.68;;;5.82;;
47021;SDS011;32779;52.264;6.154;2023-06-22T11:00:01;7.18;;;5.32;;
47021;SDS011;32779;52.264;6.154;2023-06-22T11:02:31;7.60;;;6.22;;
47021;SDS011;32779;52.264;6.154;2023-06-22T11:04:56;9.73;;;5.88;;
47021;SDS011;32779;52.264;6.154;2023-06-22T11:07:25;8.00;;;6.30;;
47021;SDS011;32779;52.264;6.154;2023-06-22T11:09:53;7.28;;;5.68;;
47021;SDS011;32779;52.264;6.154;2023-06-22T11:12:19;7.43;;;6.30;;
47021;SDS011;32779;52.264;6.154;2023-06-22T11:14:45;11.65;;;5.82;;
47021;SDS011;32779;52.264;6.154;2023-06-22T11:17:11;9.93;;;5.85;;
47021;SDS011;32779;52.264;6.154;2023-06-22T11:19:39;7.60;;;5.43;;
47021;SDS011;32779;52.264;6.154;2023-06-22T11:22:05;10.13;;;6.15;;
47021;SDS011;32779;52.264;6.154;2023-06-22T11:24:30;7.82;;;6.10;;
47021;SDS011;32779;52.264;6.154;2023-06-22T11:26:56;9.82;;;6.60;;
47021;SDS011;32779;52.264;6.154;2023-06-22T11:29:24;9.73;;;6.65;;
47021;SDS011;32779;52.264;6.154;2023-06-22T11:31:50;8.98;;;6.38;;
47021;SDS011;32779;52.264;6.154;2023-06-22T11:34:16;7.18;;;6.20;;
47021;SDS011;32779;52.264;6.154;2023-06-22T11:36:42;12.38;;;6.95;;
47021;SDS011;32779;52.264;6.154;2023-06-22T11:39:09;11.65;;;6.43;;
47021;SDS011;32779;52.264;6.154;2023-06-22T11:41:34;8.30;;;6.22;;
47021;SDS011;32779;52.264;6.154;2023-06-22T11:44:03;11.43;;;6.60;;
47021;SDS011;32779;52.264;6.154;2023-06-22T11:46:31;9.40;;;7.70;;
47021;SDS011;32779;52.264;6.154;2023-06-22T11:48:57;8.45;;;7.38;;
47021;SDS011;32779;52.264;6.154;2023-06-22T11:51:24;14.45;;;7.43;;
47021;SDS011;32779;52.264;6.154;2023-06-22T11:53:50;10.18;;;7.00;;
47021;SDS011;32779;52.264;6.154;2023-06-22T11:56:15;8.13;;;5.97;;
47021;SDS011;32779;52.264;6.154;2023-06-22T11:58:43;9.23;;;6.70;;
47021;SDS011;32779;52.264;6.154;2023-06-22T12:01:09;12.45;;;5.53;;
47021;SDS011;32779;52.264;6.154;2023-06-22T12:03:35;10.90;;;5.22;;
47021;SDS011;32779;52.264;6.154;2023-06-22T12:06:00;7.20;;;5.65;;
47021;SDS011;32779;52.264;6.154;2023-06-22T12:08:26;7.05;;;5.75;;
47021;SDS011;32779;52.264;6.154;2023-06-22T12:10:52;6.93;;;5.55;;
47021;SDS011;32779;52.264;6.154;2023-06-22T12:13:19;8.05;;;5.97;;
47021;SDS011;32779;52.264;6.154;2023-06-22T12:15:46;9.65;;;7.03;;
47021;SDS011;32779;52.264;6.154;2023-06-22T12:18:12;8.70;;;5.07;;
47021;SDS011;32779;52.264;6.154;2023-06-22T12:20:39;10.63;;;6.50;;
47021;SDS011;32779;52.264;6.154;2023-06-22T12:23:05;9.40;;;5.93;;
47021;SDS011;32779;52.264;6.154;2023-06-22T12:25:31;7.25;;;5.78;;
47021;SDS011;32779;52.264;6.154;2023-06-22T12:27:59;11.38;;;5.93;;
47021;SDS011;32779;52.264;6.154;2023-06-22T12:30:25;9.30;;;6.07;;
47021;SDS011;32779;52.264;6.154;2023-06-22T12:32:51;7.55;;;6.20;;
47021;SDS011;32779;52.264;6.154;2023-06-22T12:35:19;6.93;;;5.97;;
47021;SDS011;32779;52.264;6.154;2023-06-22T12:37:44;7.15;;;5.68;;
47021;SDS011;32779;52.264;6.154;2023-06-22T12:40:10;8.93;;;5.85;;
47021;SDS011;32779;52.264;6.154;2023-06-22T12:42:36;10.18;;;6.40;;
47021;SDS011;32779;52.264;6.154;2023-06-22T12:45:02;6.95;;;6.05;;
47021;SDS011;32779;52.264;6.154;2023-06-22T12:47:28;7.30;;;5.78;;
47021;SDS011;32779;52.264;6.154;2023-06-22T12:49:53;9.57;;;6.50;;
47021;SDS011;32779;52.264;6.154;2023-06-22T12:52:19;7.00;;;6.05;;
47021;SDS011;32779;52.264;6.154;2023-06-22T12:54:45;10.55;;;5.82;;
47021;SDS011;32779;52.264;6.154;2023-06-22T12:57:13;7.53;;;6.38;;
47021;SDS011;32779;52.264;6.154;2023-06-22T12:59:39;8.50;;;6.07;;
47021;SDS011;32779;52.264;6.154;2023-06-22T13:02:05;7.70;;;5.88;;
47021;SDS011;32779;52.264;6.154;2023-06-22T13:04:30;10.88;;;6.47;;
47021;SDS011;32779;52.264;6.154;2023-06-22T13:06:56;8.20;;;5.95;;
47021;SDS011;32779;52.264;6.154;2023-06-22T13:09:22;7.68;;;6.88;;
47021;SDS011;32779;52.264;6.154;2023-06-22T13:11:47;11.43;;;7.22;;
47021;SDS011;32779;52.264;6.154;2023-06-22T13:14:13;9.02;;;6.22;;
47021;SDS011;32779;52.264;6.154;2023-06-22T13:16:41;10.20;;;7.35;;
47021;SDS011;32779;52.264;6.154;2023-06-22T13:19:06;11.80;;;7.78;;
47021;SDS011;32779;52.264;6.154;2023-06-22T13:21:32;11.52;;;8.05;;
47021;SDS011;32779;52.264;6.154;2023-06-22T13:23:59;9.30;;;7.07;;
47021;SDS011;32779;52.264;6.154;2023-06-22T13:26:24;10.55;;;7.50;;
47021;SDS011;32779;52.264;6.154;2023-06-22T13:28:50;9.38;;;7.90;;
47021;SDS011;32779;52.264;6.154;2023-06-22T13:31:16;13.80;;;8.23;;
47021;SDS011;32779;52.264;6.154;2023-06-22T13:33:44;11.05;;;8.02;;
47021;SDS011;32779;52.264;6.154;2023-06-22T13:36:12;12.55;;;9.13;;
47021;SDS011;32779;52.264;6.154;2023-06-22T13:38:38;13.90;;;9.95;;
47021;SDS011;32779;52.264;6.154;2023-06-22T13:41:04;11.82;;;9.23;;
47021;SDS011;32779;52.264;6.154;2023-06-22T13:43:30;13.50;;;9.98;;
47021;SDS011;32779;52.264;6.154;2023-06-22T13:45:56;15.55;;;10.93;;
47021;SDS011;32779;52.264;6.154;2023-06-22T13:48:22;15.35;;;10.95;;
47021;SDS011;32779;52.264;6.154;2023-06-22T13:50:48;17.35;;;11.60;;
47021;SDS011;32779;52.264;6.154;2023-06-22T13:53:14;16.83;;;10.45;;
47021;SDS011;32779;52.264;6.154;2023-06-22T13:55:40;13.48;;;10.70;;
47021;SDS011;32779;52.264;6.154;2023-06-22T13:58:06;13.07;;;10.52;;
47021;SDS011;32779;52.264;6.154;2023-06-22T14:00:32;13.65;;;10.55;;
47021;SDS011;32779;52.264;6.154;2023-06-22T14:02:57;12.07;;;10.75;;
47021;SDS011;32779;52.264;6.154;2023-06-22T14:05:23;12.15;;;10.70;;
47021;SDS011;32779;52.264;6.154;2023-06-22T14:07:49;13.25;;;10.13;;
47021;SDS011;32779;52.264;6.154;2023-06-22T14:10:14;12.20;;;10.50;;
47021;SDS011;32779;52.264;6.154;2023-06-22T14:12:40;13.05;;;10.65;;
47021;SDS011;32779;52.264;6.154;2023-06-22T14:15:06;12.38;;;10.98;;
47021;SDS011;32779;52.264;6.154;2023-06-22T14:17:32;17.15;;;12.50;;
47021;SDS011;32779;52.264;6.154;2023-06-22T14:19:57;16.63;;;12.23;;
47021;SDS011;32779;52.264;6.154;2023-06-22T14:22:23;14.90;;;12.30;;
47021;SDS011;32779;52.264;6.154;2023-06-22T14:24:49;15.57;;;11.85;;
47021;SDS011;32779;52.264;6.154;2023-06-22T14:27:15;14.55;;;12.32;;
47021;SDS011;32779;52.264;6.154;2023-06-22T14:29:41;20.17;;;13.05;;
47021;SDS011;32779;52.264;6.154;2023-06-22T14:32:07;17.58;;;13.55;;
47021;SDS011;32779;52.264;6.154;2023-06-22T14:34:33;15.88;;;12.85;;
47021;SDS011;32779;52.264;6.154;2023-06-22T14:37:05;16.05;;;13.20;;
47021;SDS011;32779;52.264;6.154;2023-06-22T14:39:31;18.15;;;12.50;;
47021;SDS011;32779;52.264;6.154;2023-06-22T14:41:57;14.77;;;12.73;;
47021;SDS011;32779;52.264;6.154;2023-06-22T14:44:23;20.77;;;13.00;;
47021;SDS011;32779;52.264;6.154;2023-06-22T14:46:49;15.32;;;12.65;;
47021;SDS011;32779;52.264;6.154;2023-06-22T14:49:14;15.05;;;12.55;;
47021;SDS011;32779;52.264;6.154;2023-06-22T14:51:40;15.38;;;13.02;;
47021;SDS011;32779;52.264;6.154;2023-06-22T14:54:05;16.52;;;12.98;;
47021;SDS011;32779;52.264;6.154;2023-06-22T14:56:31;16.80;;;13.13;;
47021;SDS011;32779;52.264;6.154;2023-06-22T14:58:57;15.38;;;12.27;;
47021;SDS011;32779;52.264;6.154;2023-06-22T15:01:22;11.73;;;10.38;;
47021;SDS011;32779;52.264;6.154;2023-06-22T15:03:51;17.75;;;12.05;;
47021;SDS011;32779;52.264;6.154;2023-06-22T15:06:17;13.95;;;12.43;;
47021;SDS011;32779;52.264;6.154;2023-06-22T15:08:42;13.32;;;11.75;;
47021;SDS011;32779;52.264;6.154;2023-06-22T15:11:08;13.52;;;11.27;;
47021;SDS011;32779;52.264;6.154;2023-06-22T15:13:34;11.32;;;10.15;;
47021;SDS011;32779;52.264;6.154;2023-06-22T15:16:03;14.13;;;10.85;;
47021;SDS011;32779;52.264;6.154;2023-06-22T15:18:29;16.02;;;11.43;;
47021;SDS011;32779;52.264;6.154;2023-06-22T15:20:55;14.13;;;12.20;;
47021;SDS011;32779;52.264;6.154;2023-06-22T15:23:24;15.95;;;10.93;;
47021;SDS011;32779;52.264;6.154;2023-06-22T15:25:50;15.95;;;11.68;;
47021;SDS011;32779;52.264;6.154;2023-06-22T15:28:17;15.15;;;11.90;;
47021;SDS011;32779;52.264;6.154;2023-06-22T15:30:43;13.00;;;11.43;;
47021;SDS011;32779;52.264;6.154;2023-06-22T15:33:10;13.93;;;11.82;;
47021;SDS011;32779;52.264;6.154;2023-06-22T15:35:36;13.18;;;11.77;;
47021;SDS011;32779;52.264;6.154;2023-06-22T15:38:02;13.50;;;11.98;;
47021;SDS011;32779;52.264;6.154;2023-06-22T15:40:27;13.65;;;12.25;;
47021;SDS011;32779;52.264;6.154;2023-06-22T15:42:53;14.48;;;11.73;;